Terminal Aerodrome Forecast
Issued by NWS

Home | Current Version | Previous Version | Text Only | Print | Product List | Glossary On
Versions: 1 2 3 4 5 6 7 8 9 10 11 12 13 14 15 16 17 18 19 20 21 22 23
740
FTUS43 KIND 221720
TAFBMG
TAF
KBMG 221720Z 2218/2318 11005KT P6SM FEW040 SCT200
      TEMPO 2309/2313 2SM BR=

USA.gov is the U.S. government's official web portal to all federal, state and local government web resources and services.